createdAt,value
2018-07-26T05:32:45.117Z,194.4
2018-07-26T05:34:51.092Z,276.5
2018-07-26T05:36:57.046Z,53.6
2018-07-26T05:39:02.982Z,54.7
2018-07-26T05:41:08.948Z,63.4
2018-07-26T08:49:58.464Z,280.8
2018-07-26T08:52:04.691Z,275
2018-07-26T08:54:10.959Z,288
2018-07-26T08:56:16.991Z,290.9
2018-07-26T08:58:23.043Z,283.7
2018-07-26T09:00:29.002Z,266.4
2018-07-26T09:02:35.168Z,288
2018-07-26T09:04:41.140Z,290.9
2018-07-26T09:06:47.064Z,289.4
2018-07-26T09:08:53.004Z,275
2018-07-26T09:10:59.756Z,275
2018-07-26T09:13:06.047Z,279.4
2018-07-26T09:15:12.119Z,279.4
2018-07-26T09:17:18.647Z,267.8
2018-07-26T09:19:24.619Z,280.8
2018-07-26T09:21:30.625Z,270.7
2018-07-26T09:23:36.502Z,272.2
2018-07-26T09:25:42.388Z,270.7
2018-07-26T09:27:48.287Z,270.7
2018-07-26T09:29:54.181Z,269.3
2018-07-26T09:32:00.133Z,253.4
2018-07-26T09:34:06.009Z,267.8
2018-07-26T09:36:11.885Z,254.9
2018-07-26T09:38:17.888Z,198.7
2018-07-26T09:40:23.767Z,279.4
2018-07-26T09:42:29.692Z,275
2018-07-26T09:44:35.569Z,267.8
2018-07-26T09:46:41.616Z,272.2
2018-07-26T09:48:47.554Z,270.7
2018-07-26T09:50:53.506Z,243.4
2018-07-26T09:52:59.413Z,256.3
2018-07-26T09:55:06.874Z,277.9
2018-07-26T09:57:12.799Z,198.7
2018-07-26T09:59:18.754Z,246.2
2018-07-26T10:01:24.808Z,266.4
2018-07-26T10:03:30.681Z,269.3
2018-07-26T10:05:36.579Z,279.4
2018-07-26T10:07:42.768Z,277.9
2018-07-26T10:09:48.712Z,279.4
2018-07-26T10:11:54.580Z,280.8
2018-07-26T10:14:00.880Z,282.2
2018-07-26T10:16:06.946Z,282.2
2018-07-26T10:18:12.946Z,282.2
2018-07-26T10:20:19.442Z,285.1
2018-07-26T10:22:25.313Z,283.7
2018-07-26T10:24:31.415Z,282.2
2018-07-26T10:26:37.299Z,285.1
2018-07-26T10:28:43.325Z,288
2018-07-26T10:30:49.481Z,282.2
2018-07-26T10:32:55.359Z,289.4
2018-07-26T10:35:01.390Z,277.9
2018-07-26T10:37:07.302Z,286.6
2018-07-26T10:39:13.192Z,286.6
2018-07-26T10:41:19.146Z,286.6
2018-07-26T10:43:25.124Z,286.6
2018-07-26T10:45:31.110Z,288
2018-07-26T10:47:37.001Z,288
2018-07-26T10:49:42.955Z,288
2018-07-26T10:51:48.833Z,286.6
2018-07-26T10:53:54.969Z,288
2018-07-26T10:56:00.923Z,289.4
2018-07-26T10:58:06.868Z,290.9
2018-07-26T11:00:12.965Z,289.4
2018-07-26T11:02:18.983Z,289.4
2018-07-26T11:04:24.938Z,289.4
2018-07-26T11:06:30.973Z,289.4
2018-07-26T11:08:36.851Z,290.9
2018-07-26T11:10:43.008Z,288
2018-07-26T11:12:48.878Z,292.3
2018-07-26T11:14:54.929Z,293.8
2018-07-26T11:17:00.983Z,296.6
2018-07-26T11:19:07.278Z,262.1
2018-07-26T11:21:13.397Z,259.2
2018-07-26T11:23:19.255Z,289.4
2018-07-26T11:25:25.165Z,276.5
2018-07-26T11:27:31.187Z,292.3
2018-07-26T11:29:37.375Z,252
2018-07-26T11:31:43.869Z,254.9
2018-07-26T11:33:49.738Z,246.2
2018-07-26T11:35:56.032Z,269.3
2018-07-26T11:38:02.520Z,267.8
2018-07-26T11:40:08.415Z,266.4
2018-07-26T11:42:14.357Z,265
2018-07-26T11:44:20.306Z,262.1
2018-07-26T11:46:26.608Z,260.6
2018-07-26T11:48:32.520Z,260.6
2018-07-26T11:50:38.383Z,260.6
2018-07-26T11:52:44.576Z,266.4
2018-07-26T11:54:50.684Z,290.9
2018-07-26T11:56:57.085Z,292.3
2018-07-26T11:59:05.457Z,292.3
2018-07-26T12:01:11.415Z,292.3
2018-07-26T12:03:17.405Z,290.9
2018-07-26T12:05:24.447Z,290.9
2018-07-26T12:07:30.601Z,292.3
2018-07-26T12:09:36.882Z,292.3
2018-07-26T12:11:42.726Z,290.9
2018-07-26T12:13:48.687Z,292.3
2018-07-26T12:15:55.003Z,286.6
2018-07-26T12:18:01.124Z,292.3
2018-07-26T12:20:07.247Z,293.8
2018-07-26T12:22:13.111Z,293.8
2018-07-26T12:24:19.143Z,269.3
2018-07-26T12:26:25.097Z,270.7
2018-07-26T12:28:31.050Z,286.6
2018-07-26T12:30:36.916Z,236.2
2018-07-26T12:32:42.952Z,292.3
2018-07-26T12:34:48.909Z,272.2
2018-07-26T12:36:54.874Z,257.8
2018-07-26T12:39:00.917Z,263.5
2018-07-26T12:41:07.077Z,256.3
2018-07-26T12:43:13.251Z,247.7
2018-07-26T12:45:19.577Z,256.3
2018-07-26T12:47:26.075Z,272.2
2018-07-26T12:49:32.065Z,292.3
2018-07-26T12:51:38.018Z,262.1
2018-07-26T12:53:43.917Z,259.2
2018-07-26T12:55:50.449Z,266.4
2018-07-26T12:57:57.254Z,253.4
2018-07-26T13:00:03.516Z,252
2018-07-26T13:02:09.368Z,250.6
